SBFZ/FOR METAR and TAF weather

Enter ICAO airport designator
Station Type Date Time Source
SBFZ METAR 2021/06/23 00:00 UTC NOAA

SBFZ 230000Z 09005KT 9999 SCT020 27/22 Q1015


Station Type Date Time Source
SBFZ Decoded METAR 2021/06/23 00:00 UTC NOAA

Fortaleza / pinto Martins , Brazil (SBFZ) 03-47S 038-32W 25M
Jun 22, 2021 - 08:00 PM EDT / 2021.06.23 0000 UTC
Wind: from the E (090 degrees) at 6 MPH (5 KT):0
Visibility: greater than 7 mile(s):0
Sky conditions: partly cloudy
Temperature: 80 F (27 C)
Dew Point: 71 F (22 C)
Relative Humidity: 74%
Pressure (altimeter): 29.97 in. Hg (1015 hPa)
ob: SBFZ 230000Z 09005KT 9999 SCT020 27/22 Q1015
cycle: 0

Station Type Date Time Source
SBFZ TAF 2021/06/23 00:00 UTC NOAA

TAF SBFZ 222024Z 2300/2324 09005KT 9999 FEW022 TN25/2309Z TX31/2316Z
BECMG 2307/2309 15007KT PROB40
TEMPO 2309/2311 4000 RA BKN012 FEW020TCU
BECMG 2311/2313 10017KT
BECMG 2319/2321 09007KT
RMK PHI

Example: see airport list